South Alabama Regional At Bill Benton Field Airport
K79J : rendu visible

Aérodrome :











RETROUVEZ-NOUS SUR...

 
LOGIN :

S'inscrire | Disclaimer

   EN    FR    IT 

 









Légende :    VFR   VFR Marginal   IFR   IFR Intensif   IFR Très Intensif
Visi : 
Plafond : 
>= 8 km
>= 3000ft
5 à 8 km
1000 à 3000 ft
1500m à 5 km
500 à 1000 ft
800 à 1500m
200 à 500 ft
< 800m
< 200 ft
Symboles :   Orages  Brouillard  Fortes neiges  Fortes précipitations  Vent > 20 kt






- Altitude de l'aérodrome : 310 ft


K79J - South Alabama Regional At Bill Benton Field

DERNIER METAR :
  • 171856Z AUTO 10012G17KT 10SM BKN120 23/M02 A3037 RMK AO2 SLP280 T02281022

METARs EXPIRÉS :
  • 171756Z AUTO 10013G18KT 10SM CLR 22/M02 A3040 RMK AO2 SLP290 T02221017 10222 20111 58016
  • 171656Z AUTO 10012G21KT 10SM CLR 21/M03 A3043 RMK AO2 SLP301 T02061028

TAF N/A



MET'MAP, la Météo Aéronautique d'un coup d'oeil ! - Copyright ORBIFLY Décembre 2007 - Disclaimer

ORBIFLY MET'MAP TEAM :

Programmation & Développement : Alexandra Zaïnal
Sur une idée originale de : Baudouin d'Aumeries
Assistance à la programmation : Marc-Olivier Méhu
Soutien technique & logistique : Manuel Goepfert

Contact : metmap@orbifly.com




SOURCES & CREDITS :

   NOAA       Earth
Advisory